createdAt,value
2023-02-28T00:01:22.209Z,69.80
2023-02-28T00:03:49.141Z,70.50
2023-02-28T00:06:16.676Z,70.30
2023-02-28T00:08:43.788Z,70.60
2023-02-28T00:11:14.050Z,70.30
2023-02-28T00:13:43.515Z,70.10
2023-02-28T00:16:12.821Z,70.00
2023-02-28T00:18:39.802Z,69.90
2023-02-28T00:21:07.652Z,69.80
2023-02-28T00:23:34.897Z,69.80
2023-02-28T00:26:03.359Z,69.80
2023-02-28T00:28:30.441Z,70.10
2023-02-28T00:30:58.641Z,70.10
2023-02-28T00:33:25.672Z,70.30
2023-02-28T00:35:52.710Z,69.80
2023-02-28T00:38:19.693Z,70.10
2023-02-28T00:40:46.780Z,70.10
2023-02-28T00:43:13.793Z,70.10
2023-02-28T00:45:40.675Z,70.00
2023-02-28T00:48:07.556Z,70.10
2023-02-28T00:50:34.452Z,70.20
2023-02-28T00:53:01.502Z,70.00
2023-02-28T00:55:28.416Z,70.10
2023-02-28T00:57:55.292Z,70.20
2023-02-28T01:00:22.438Z,70.10
2023-02-28T01:02:49.389Z,70.00
2023-02-28T01:05:16.475Z,70.10
2023-02-28T01:07:43.334Z,69.70
2023-02-28T01:10:10.984Z,69.70
2023-02-28T01:12:38.002Z,70.30
2023-02-28T01:15:05.788Z,70.00
2023-02-28T01:17:32.612Z,70.20
2023-02-28T01:19:59.563Z,70.10
2023-02-28T01:22:27.528Z,70.10
2023-02-28T01:24:55.809Z,70.10
2023-02-28T01:27:23.483Z,70.40
2023-02-28T01:29:52.037Z,70.30
2023-02-28T01:32:18.931Z,70.10
2023-02-28T01:34:45.862Z,70.20
2023-02-28T01:37:12.732Z,70.30
2023-02-28T01:39:39.620Z,69.80
2023-02-28T01:42:06.602Z,70.30
2023-02-28T01:45:04.403Z,70.30
2023-02-28T01:47:39.790Z,70.20
2023-02-28T01:50:12.122Z,70.60
2023-02-28T01:52:39.736Z,70.20
2023-02-28T01:55:08.351Z,70.80
2023-02-28T01:57:40.394Z,71.50
2023-02-28T02:00:16.131Z,71.00
2023-02-28T02:02:44.067Z,71.00
2023-02-28T02:05:16.737Z,70.70
2023-02-28T02:07:46.565Z,71.20
2023-02-28T02:10:18.780Z,71.00
2023-02-28T02:13:08.930Z,70.90
2023-02-28T02:15:45.731Z,70.30
2023-02-28T02:18:35.751Z,70.30
2023-02-28T02:21:14.673Z,70.50
2023-02-28T02:23:53.425Z,70.70
2023-02-28T02:26:36.868Z,70.80
2023-02-28T02:29:04.750Z,70.70
2023-02-28T02:32:03.978Z,70.70
2023-02-28T02:35:12.145Z,70.10
2023-02-28T02:37:50.976Z,70.70
2023-02-28T02:40:28.449Z,70.50
2023-02-28T02:43:12.058Z,70.60
2023-02-28T02:45:49.064Z,71.00
2023-02-28T02:48:20.989Z,70.40
2023-02-28T02:50:52.503Z,70.40
2023-02-28T02:53:23.608Z,71.00
2023-02-28T02:55:55.556Z,70.90
2023-02-28T02:58:36.419Z,70.60
2023-02-28T03:01:06.003Z,70.80
2023-02-28T03:03:34.264Z,70.70
2023-02-28T03:06:03.783Z,70.90
2023-02-28T03:08:35.997Z,70.90
2023-02-28T03:11:07.137Z,70.80
2023-02-28T03:13:40.283Z,71.00
2023-02-28T03:16:34.989Z,71.00
2023-02-28T03:19:39.974Z,71.00
2023-02-28T03:22:27.971Z,70.90
2023-02-28T03:25:03.595Z,70.90
2023-02-28T03:27:45.407Z,70.70
2023-02-28T03:30:19.560Z,70.80
2023-02-28T03:33:16.053Z,70.70
2023-02-28T03:36:05.126Z,70.90
2023-02-28T03:38:50.004Z,71.00
2023-02-28T03:41:36.351Z,71.00
2023-02-28T03:44:16.474Z,71.00
2023-02-28T03:46:55.200Z,70.90
2023-02-28T03:49:27.458Z,71.00
2023-02-28T03:51:59.118Z,71.20
2023-02-28T03:54:43.027Z,71.30
2023-02-28T03:57:26.979Z,71.20
2023-02-28T04:00:32.099Z,71.50
2023-02-28T04:02:59.115Z,71.40
2023-02-28T04:05:26.820Z,71.60
2023-02-28T04:07:55.102Z,71.50
2023-02-28T04:10:22.270Z,71.40
2023-02-28T04:12:49.496Z,71.50
2023-02-28T04:15:16.380Z,71.50
2023-02-28T04:17:43.547Z,71.60
2023-02-28T04:20:12.717Z,71.60
2023-02-28T04:22:39.637Z,71.80
2023-02-28T04:25:07.248Z,71.70
2023-02-28T04:27:34.609Z,71.90
2023-02-28T04:30:02.172Z,72.00
2023-02-28T04:32:29.464Z,72.00
2023-02-28T04:34:56.478Z,72.00
2023-02-28T04:37:28.871Z,72.10
2023-02-28T04:39:56.068Z,72.10
2023-02-28T04:42:22.900Z,72.20
2023-02-28T04:44:49.799Z,72.60
2023-02-28T04:47:16.715Z,72.80
2023-02-28T04:49:43.933Z,72.80
2023-02-28T04:52:11.533Z,73.20
2023-02-28T04:54:40.223Z,73.00
2023-02-28T04:57:07.227Z,73.30
2023-02-28T04:59:34.341Z,73.60
2023-02-28T05:02:01.303Z,73.50
2023-02-28T05:04:28.177Z,73.70
2023-02-28T05:06:56.426Z,74.00
2023-02-28T05:09:23.356Z,74.00
2023-02-28T05:11:50.255Z,74.40
2023-02-28T05:14:17.277Z,74.70
2023-02-28T05:16:44.342Z,74.70
2023-02-28T05:19:11.566Z,75.10
2023-02-28T05:21:51.909Z,75.40
2023-02-28T05:24:24.031Z,75.80
2023-02-28T05:26:53.612Z,76.00
2023-02-28T05:29:20.552Z,76.30
2023-02-28T05:31:47.691Z,76.70
2023-02-28T05:34:16.662Z,76.90
2023-02-28T05:36:44.212Z,77.40
2023-02-28T05:39:14.273Z,78.10
2023-02-28T05:41:43.230Z,78.80
2023-02-28T05:44:11.070Z,79.20
2023-02-28T05:46:37.996Z,79.70
2023-02-28T05:49:05.098Z,80.00
2023-02-28T05:51:32.403Z,80.70
2023-02-28T05:54:03.341Z,81.00
2023-02-28T05:56:30.743Z,82.00
2023-02-28T05:58:57.715Z,82.40
2023-02-28T06:01:37.638Z,82.60
2023-02-28T06:04:07.110Z,83.00
2023-02-28T06:06:37.051Z,83.20
2023-02-28T06:09:07.158Z,83.60
2023-02-28T06:11:34.400Z,84.10
2023-02-28T06:14:02.955Z,85.00
2023-02-28T06:16:31.212Z,85.40
2023-02-28T06:19:04.313Z,85.50
2023-02-28T06:21:33.231Z,85.50
2023-02-28T06:24:02.129Z,85.00
2023-02-28T06:26:29.060Z,84.90
2023-02-28T06:28:56.302Z,84.90
2023-02-28T06:31:24.306Z,84.90
2023-02-28T06:34:02.366Z,84.90
2023-02-28T06:36:29.381Z,85.40
2023-02-28T06:38:57.143Z,85.60
2023-02-28T06:41:26.467Z,86.10
2023-02-28T06:43:54.525Z,86.30
2023-02-28T06:46:21.685Z,86.00
2023-02-28T06:48:48.999Z,86.50
2023-02-28T06:51:23.313Z,86.80
2023-02-28T06:53:50.350Z,87.10
2023-02-28T06:56:19.043Z,87.90
2023-02-28T06:58:53.511Z,88.20
2023-02-28T07:01:20.955Z,88.30
2023-02-28T07:03:48.218Z,88.60
2023-02-28T07:06:18.980Z,88.70
2023-02-28T07:08:46.090Z,88.60
2023-02-28T07:11:14.411Z,89.30
2023-02-28T07:13:41.458Z,89.70
2023-02-28T07:16:13.650Z,89.70
2023-02-28T07:18:40.650Z,89.90
2023-02-28T07:21:10.968Z,90.00
2023-02-28T07:23:39.162Z,90.00
2023-02-28T07:26:07.732Z,90.20
2023-02-28T07:28:35.534Z,90.10
2023-02-28T07:31:07.884Z,90.20
2023-02-28T07:33:35.667Z,90.20
2023-02-28T07:36:07.609Z,90.50
2023-02-28T07:38:40.051Z,90.40
2023-02-28T07:41:06.944Z,90.30
2023-02-28T07:43:36.165Z,90.50
2023-02-28T07:46:16.345Z,90.50
2023-02-28T07:48:44.518Z,90.40
2023-02-28T07:51:11.822Z,90.50
2023-02-28T07:53:38.958Z,90.70
2023-02-28T07:56:06.430Z,90.10
2023-02-28T07:58:33.347Z,90.10
2023-02-28T08:01:07.626Z,90.00
2023-02-28T08:03:36.524Z,90.00
2023-02-28T08:06:05.437Z,90.20
2023-02-28T08:08:32.678Z,90.60
2023-02-28T08:11:01.824Z,91.40
2023-02-28T08:13:30.066Z,91.70
2023-02-28T08:16:00.222Z,91.50
2023-02-28T08:18:27.600Z,91.00
2023-02-28T08:20:54.550Z,91.20
2023-02-28T08:23:21.480Z,91.10
2023-02-28T08:25:57.241Z,90.80
2023-02-28T08:28:27.109Z,90.80
2023-02-28T08:30:55.798Z,90.90
2023-02-28T08:33:23.967Z,90.90
2023-02-28T08:35:57.098Z,90.60
2023-02-28T08:38:24.678Z,90.50
2023-02-28T08:40:58.182Z,90.70
2023-02-28T08:43:25.342Z,90.40
2023-02-28T08:46:00.381Z,90.50
2023-02-28T08:48:34.007Z,90.30
2023-02-28T08:51:09.612Z,88.90
2023-02-28T08:53:40.249Z,86.00
2023-02-28T08:56:12.996Z,85.30
2023-02-28T08:58:41.773Z,84.80
2023-02-28T09:01:14.169Z,84.40
2023-02-28T09:03:44.617Z,83.90
2023-02-28T09:06:12.832Z,83.90
2023-02-28T09:08:40.021Z,84.00
2023-02-28T09:11:07.735Z,84.00
2023-02-28T09:13:35.337Z,84.60
2023-02-28T09:16:05.316Z,83.70
2023-02-28T09:18:32.230Z,83.80
2023-02-28T09:20:59.144Z,83.80
2023-02-28T09:23:27.775Z,83.60
2023-02-28T09:25:56.347Z,83.50
2023-02-28T09:28:24.337Z,83.80
2023-02-28T09:30:54.077Z,83.70
2023-02-28T09:33:24.840Z,83.60
2023-02-28T09:35:58.488Z,83.70
2023-02-28T09:38:26.959Z,83.70
2023-02-28T09:40:57.313Z,83.80
2023-02-28T09:43:30.085Z,83.60
2023-02-28T09:46:20.267Z,84.10
2023-02-28T09:48:49.386Z,83.70
2023-02-28T09:51:53.524Z,83.70
2023-02-28T09:54:23.661Z,83.70
2023-02-28T09:57:42.740Z,83.50
2023-02-28T10:00:34.820Z,83.80
2023-02-28T10:03:18.320Z,83.20
2023-02-28T10:05:51.516Z,83.50
2023-02-28T10:08:26.311Z,83.40
2023-02-28T10:11:01.630Z,83.40
2023-02-28T10:13:51.566Z,83.80
2023-02-28T10:16:25.390Z,83.40
2023-02-28T10:19:08.966Z,83.50
2023-02-28T10:21:42.305Z,83.70
2023-02-28T10:24:33.787Z,83.70
2023-02-28T10:27:05.476Z,83.20
2023-02-28T10:29:35.978Z,83.30
2023-02-28T10:32:04.773Z,83.30
2023-02-28T10:34:31.858Z,83.40
2023-02-28T10:37:08.711Z,83.30
2023-02-28T10:39:44.113Z,83.40
2023-02-28T10:42:43.481Z,83.40
2023-02-28T10:45:17.472Z,83.20
2023-02-28T10:48:01.526Z,83.10
2023-02-28T10:50:49.919Z,83.20
2023-02-28T10:53:26.035Z,81.50
2023-02-28T10:56:10.530Z,80.50
2023-02-28T10:58:58.630Z,80.50
2023-02-28T11:01:47.238Z,79.90
2023-02-28T11:04:33.823Z,79.80
2023-02-28T11:07:09.688Z,79.90
2023-02-28T11:09:40.266Z,80.10
2023-02-28T11:12:21.569Z,80.30
2023-02-28T11:15:05.510Z,80.40
2023-02-28T11:17:33.829Z,80.50
2023-02-28T11:20:05.619Z,80.70
2023-02-28T11:22:39.098Z,80.40
2023-02-28T11:25:25.067Z,80.50
2023-02-28T11:27:55.266Z,81.20
2023-02-28T11:30:43.197Z,80.80
2023-02-28T11:33:52.825Z,80.90
2023-02-28T11:36:25.755Z,81.20
2023-02-28T11:38:57.574Z,81.40
2023-02-28T11:41:54.568Z,81.00
2023-02-28T11:44:48.710Z,80.30
2023-02-28T11:47:43.628Z,79.10
2023-02-28T11:50:32.749Z,77.90
2023-02-28T11:53:23.142Z,78.90
2023-02-28T11:56:07.447Z,79.00
2023-02-28T11:58:43.159Z,79.20
2023-02-28T12:01:16.019Z,79.70
2023-02-28T12:04:22.416Z,80.10
2023-02-28T12:07:02.444Z,80.30
2023-02-28T12:09:47.926Z,80.10
2023-02-28T12:12:28.008Z,78.50
2023-02-28T12:15:16.346Z,80.10
2023-02-28T12:18:19.298Z,80.10
2023-02-28T12:21:23.113Z,80.40
2023-02-28T12:24:01.845Z,80.00
2023-02-28T12:26:42.568Z,80.20
2023-02-28T12:29:21.289Z,80.00
2023-02-28T12:32:06.453Z,80.30
2023-02-28T12:34:43.354Z,80.20
2023-02-28T12:37:21.013Z,80.30
2023-02-28T12:39:53.774Z,80.50
2023-02-28T12:42:34.909Z,80.30
2023-02-28T12:45:23.125Z,80.20
2023-02-28T12:48:02.501Z,80.20
2023-02-28T12:50:32.811Z,80.50
2023-02-28T12:53:29.899Z,80.70
2023-02-28T12:56:36.986Z,80.30
2023-02-28T12:59:22.108Z,80.90
2023-02-28T13:01:57.893Z,80.80
2023-02-28T13:04:45.157Z,80.50
2023-02-28T13:07:24.036Z,80.50
2023-02-28T13:09:56.086Z,80.80
2023-02-28T13:12:24.065Z,80.90
2023-02-28T13:14:51.941Z,81.40
2023-02-28T13:17:24.924Z,81.20
2023-02-28T13:19:55.001Z,81.60
2023-02-28T13:22:50.055Z,81.50
2023-02-28T13:25:35.224Z,81.60
2023-02-28T13:28:09.557Z,81.60
2023-02-28T13:30:56.972Z,81.40
2023-02-28T13:33:32.700Z,81.70
2023-02-28T13:36:18.411Z,82.00
2023-02-28T13:39:00.930Z,82.30
2023-02-28T13:41:31.261Z,82.60
2023-02-28T13:44:14.244Z,81.80
2023-02-28T13:46:50.176Z,82.10
2023-02-28T13:49:43.908Z,82.40
2023-02-28T13:52:19.118Z,82.30
2023-02-28T13:55:45.960Z,82.50
2023-02-28T13:58:34.884Z,82.70
2023-02-28T14:01:19.824Z,83.50
2023-02-28T14:04:11.646Z,83.40
2023-02-28T14:06:47.863Z,83.00
2023-02-28T14:09:37.763Z,82.90
2023-02-28T14:12:58.954Z,83.10
2023-02-28T14:15:34.604Z,83.40
2023-02-28T14:18:14.909Z,83.40
2023-02-28T14:20:42.130Z,83.80
2023-02-28T14:23:46.942Z,83.90
2023-02-28T14:26:32.811Z,83.80
2023-02-28T14:29:21.385Z,84.30
2023-02-28T14:32:03.608Z,84.90
2023-02-28T14:34:40.812Z,85.20
2023-02-28T14:37:17.444Z,86.40
2023-02-28T14:39:45.804Z,86.00
2023-02-28T14:42:35.029Z,86.10
2023-02-28T14:45:03.001Z,86.20
2023-02-28T14:47:36.724Z,86.30
2023-02-28T14:50:05.393Z,86.80
2023-02-28T14:52:34.192Z,87.00
2023-02-28T14:55:24.120Z,86.50
2023-02-28T14:57:57.227Z,87.50
2023-02-28T15:00:26.382Z,87.20
2023-02-28T15:02:54.710Z,87.30
2023-02-28T15:05:33.557Z,87.10
2023-02-28T15:08:18.373Z,87.80
2023-02-28T15:11:01.539Z,87.80
2023-02-28T15:13:41.673Z,87.50
2023-02-28T15:16:17.857Z,88.40
2023-02-28T15:18:57.040Z,88.50
2023-02-28T15:21:31.463Z,89.40
2023-02-28T15:24:07.648Z,88.80
2023-02-28T15:26:43.546Z,89.00
2023-02-28T15:29:19.277Z,89.10
2023-02-28T15:31:57.784Z,89.50
2023-02-28T15:34:43.091Z,89.50
2023-02-28T15:42:44.806Z,90.30
2023-02-28T15:45:46.242Z,89.90
2023-02-28T15:53:19.916Z,90.30
2023-02-28T17:02:02.877Z,92.30
2023-02-28T17:04:30.742Z,91.20
2023-02-28T17:06:58.839Z,90.60
2023-02-28T17:09:39.997Z,90.40
2023-02-28T17:12:07.626Z,90.00
2023-02-28T17:14:34.640Z,90.50
2023-02-28T17:17:01.808Z,90.30
2023-02-28T17:19:30.175Z,90.30
2023-02-28T17:21:57.329Z,90.00
2023-02-28T17:24:31.003Z,89.80
2023-02-28T17:26:58.832Z,90.00
2023-02-28T17:29:26.115Z,90.10
2023-02-28T17:31:53.240Z,89.80
2023-02-28T17:34:21.144Z,88.90
2023-02-28T17:36:50.414Z,88.50
2023-02-28T17:39:25.249Z,90.20
2023-02-28T17:41:56.078Z,90.20
2023-02-28T17:44:25.162Z,90.30
2023-02-28T17:46:53.134Z,90.40
2023-02-28T17:49:20.077Z,90.10
2023-02-28T17:51:47.552Z,90.20
2023-02-28T17:54:19.136Z,90.10
2023-02-28T17:56:46.969Z,90.10
2023-02-28T17:59:14.168Z,90.10
2023-02-28T18:01:41.340Z,90.10
2023-02-28T18:04:08.397Z,90.00
2023-02-28T18:06:47.560Z,90.20
2023-02-28T18:09:22.609Z,90.10
2023-02-28T18:11:54.387Z,89.90
2023-02-28T18:14:24.592Z,90.00
2023-02-28T18:16:52.942Z,90.00
2023-02-28T18:19:21.213Z,89.80
2023-02-28T18:21:50.776Z,89.80
2023-02-28T18:24:21.126Z,84.90
2023-02-28T18:26:48.078Z,84.20
2023-02-28T18:29:22.475Z,84.70
2023-02-28T18:31:49.999Z,84.50
2023-02-28T18:34:17.310Z,85.20
2023-02-28T18:36:47.409Z,85.40
2023-02-28T18:39:15.981Z,85.30
2023-02-28T18:41:43.003Z,85.00
2023-02-28T18:44:19.110Z,85.60
2023-02-28T18:46:47.357Z,85.40
2023-02-28T18:49:14.494Z,85.30
2023-02-28T18:51:45.415Z,85.50
2023-02-28T18:54:16.445Z,85.50
2023-02-28T18:56:43.937Z,85.40
2023-02-28T18:59:11.370Z,86.00
2023-02-28T19:01:38.693Z,85.10
2023-02-28T19:04:06.620Z,86.00
2023-02-28T19:06:34.725Z,86.10
2023-02-28T19:09:04.041Z,86.10
2023-02-28T19:11:31.632Z,85.90
2023-02-28T19:13:58.854Z,86.30
2023-02-28T19:16:28.355Z,85.60
2023-02-28T19:18:55.964Z,85.40
2023-02-28T19:21:24.431Z,85.60
2023-02-28T19:23:53.090Z,85.90
2023-02-28T19:26:23.095Z,85.20
2023-02-28T19:28:50.159Z,85.10
2023-02-28T19:31:23.464Z,85.60
2023-02-28T19:33:53.043Z,84.50
2023-02-28T19:36:21.087Z,84.70
2023-02-28T19:38:48.637Z,85.50
2023-02-28T19:41:16.989Z,85.50
2023-02-28T19:43:44.503Z,86.40
2023-02-28T19:46:12.318Z,85.90
2023-02-28T19:48:39.626Z,86.00
2023-02-28T19:51:09.925Z,86.90
2023-02-28T19:53:38.980Z,87.20
2023-02-28T19:56:08.672Z,87.40
2023-02-28T19:58:36.249Z,87.40
2023-02-28T20:01:15.354Z,88.80
2023-02-28T20:03:43.278Z,87.40
2023-02-28T20:06:14.253Z,87.60
2023-02-28T20:08:42.018Z,88.80
2023-02-28T20:11:13.275Z,88.80
2023-02-28T20:13:40.567Z,89.00
2023-02-28T20:16:10.339Z,89.00
2023-02-28T20:18:38.932Z,89.30
2023-02-28T20:21:08.711Z,89.10
2023-02-28T20:23:38.210Z,89.30
2023-02-28T20:26:06.733Z,87.00
2023-02-28T20:28:39.775Z,86.40
2023-02-28T20:31:19.136Z,86.80
2023-02-28T20:33:47.030Z,87.60
2023-02-28T20:36:16.082Z,87.80
2023-02-28T20:38:45.196Z,87.30
2023-02-28T20:41:13.289Z,87.60
2023-02-28T20:43:41.691Z,88.00
2023-02-28T20:46:09.189Z,87.20
2023-02-28T20:48:36.677Z,88.00
2023-02-28T20:51:05.626Z,89.00
2023-02-28T20:53:39.739Z,88.20
2023-02-28T20:56:18.509Z,89.50
2023-02-28T20:58:48.097Z,89.30
2023-02-28T21:01:26.581Z,89.60
2023-02-28T21:03:57.341Z,89.40
2023-02-28T21:06:28.823Z,89.70
2023-02-28T21:08:58.311Z,89.80
2023-02-28T21:11:30.342Z,89.70
2023-02-28T21:14:00.268Z,89.90
2023-02-28T21:16:30.319Z,89.90
2023-02-28T21:19:03.940Z,90.00
2023-02-28T21:21:36.456Z,89.70
2023-02-28T21:24:06.999Z,89.70
2023-02-28T21:26:35.447Z,89.70
2023-02-28T21:29:03.448Z,89.70
2023-02-28T21:31:32.932Z,87.80
2023-02-28T21:34:01.247Z,89.90
2023-02-28T21:36:33.193Z,89.80
2023-02-28T21:39:04.349Z,90.00
2023-02-28T21:41:31.433Z,89.90
2023-02-28T21:43:58.449Z,90.00
2023-02-28T21:46:29.046Z,89.80
2023-02-28T21:48:56.902Z,89.60
2023-02-28T21:51:34.340Z,89.90
2023-02-28T21:54:02.796Z,89.60
2023-02-28T21:56:32.488Z,89.60
2023-02-28T21:59:00.919Z,86.20
2023-02-28T22:01:39.729Z,74.50
2023-02-28T22:04:09.591Z,65.30
2023-02-28T22:06:39.553Z,67.80
2023-02-28T22:09:09.726Z,85.50
2023-02-28T22:11:39.410Z,74.90
2023-02-28T22:14:07.521Z,71.80
2023-02-28T22:16:50.385Z,71.30
2023-02-28T22:19:19.008Z,70.00
2023-02-28T22:21:47.441Z,69.00
2023-02-28T22:24:14.899Z,69.20
2023-02-28T22:26:41.951Z,69.10
2023-02-28T22:29:10.614Z,69.20
2023-02-28T22:31:37.637Z,69.50
2023-02-28T22:34:09.143Z,69.70
2023-02-28T22:36:36.887Z,70.50
2023-02-28T22:39:05.039Z,71.50
2023-02-28T22:41:32.806Z,76.20
2023-02-28T22:44:02.432Z,76.10
2023-02-28T22:46:31.673Z,77.40
2023-02-28T22:49:02.815Z,78.30
2023-02-28T22:51:31.500Z,75.90
2023-02-28T22:53:59.026Z,77.40
2023-02-28T22:56:29.275Z,78.10
2023-02-28T22:59:01.199Z,79.20
2023-02-28T23:01:31.862Z,76.20
2023-02-28T23:03:59.285Z,76.10
2023-02-28T23:06:29.613Z,77.30
2023-02-28T23:09:01.342Z,75.60
2023-02-28T23:11:40.789Z,75.50
2023-02-28T23:14:12.793Z,76.30
2023-02-28T23:16:45.479Z,74.80
2023-02-28T23:19:16.636Z,74.30
2023-02-28T23:21:45.022Z,73.00
2023-02-28T23:24:14.364Z,72.50
2023-02-28T23:26:44.703Z,72.40
2023-02-28T23:29:14.707Z,72.80
2023-02-28T23:31:41.725Z,72.90
2023-02-28T23:34:09.515Z,72.90
2023-02-28T23:36:38.231Z,73.60
2023-02-28T23:39:06.407Z,73.30
2023-02-28T23:41:34.479Z,74.00
2023-02-28T23:44:01.446Z,74.20
2023-02-28T23:46:28.770Z,74.10
2023-02-28T23:48:56.127Z,74.60
2023-02-28T23:51:23.649Z,74.50
2023-02-28T23:53:52.070Z,74.60
2023-02-28T23:56:21.553Z,74.90
2023-02-28T23:58:50.529Z,75.20
